TimeCST,TemperatureF,Dew PointF,Humidity,Sea Level PressureIn,VisibilityMPH,Wind Direction,Wind SpeedMPH,Gust SpeedMPH,PrecipitationIn,Events,Conditions,WindDirDegrees,DateUTC
12:15 AM,41.0,35.6,81,29.96,10.0,North,5.8,-,N/A,,Overcast,10,2012-12-07 06:15:00
12:35 AM,41.0,35.6,81,29.96,10.0,North,8.1,-,N/A,,Overcast,360,2012-12-07 06:35:00
12:55 AM,41.0,33.8,76,29.95,10.0,NNE,5.8,-,N/A,,Overcast,30,2012-12-07 06:55:00
1:15 AM,41.0,33.8,76,29.95,10.0,North,5.8,-,N/A,,Overcast,10,2012-12-07 07:15:00
1:35 AM,41.0,33.8,76,29.95,10.0,North,5.8,-,N/A,,Overcast,10,2012-12-07 07:35:00
1:55 AM,41.0,33.8,76,29.95,10.0,North,6.9,-,N/A,,Overcast,10,2012-12-07 07:55:00
2:15 AM,41.0,33.8,76,29.95,10.0,North,9.2,-,N/A,,Overcast,10,2012-12-07 08:15:00
2:35 AM,41.0,33.8,76,29.95,10.0,NNE,6.9,-,N/A,,Overcast,20,2012-12-07 08:35:00
2:55 AM,39.2,33.8,81,29.95,10.0,North,8.1,-,N/A,,Overcast,360,2012-12-07 08:55:00
3:15 AM,39.2,33.8,81,29.95,10.0,NNE,4.6,-,N/A,,Overcast,20,2012-12-07 09:15:00
3:35 AM,39.2,33.8,81,29.94,10.0,Calm,Calm,-,N/A,,Overcast,0,2012-12-07 09:35:00
3:55 AM,39.2,33.8,81,29.95,10.0,NNW,3.5,-,N/A,,Overcast,340,2012-12-07 09:55:00
4:15 AM,39.2,33.8,81,29.94,10.0,Calm,Calm,-,N/A,,Overcast,0,2012-12-07 10:15:00
4:35 AM,39.2,33.8,81,29.94,10.0,Calm,Calm,-,N/A,,Scattered Clouds,0,2012-12-07 10:35:00
4:55 AM,37.4,32.0,81,29.94,10.0,Calm,Calm,-,N/A,,Scattered Clouds,0,2012-12-07 10:55:00
5:15 AM,39.2,30.2,70,29.94,10.0,NE,5.8,-,N/A,,Mostly Cloudy,50,2012-12-07 11:15:00
5:35 AM,35.6,30.2,81,29.94,10.0,NNE,6.9,-,N/A,,Scattered Clouds,20,2012-12-07 11:35:00
5:55 AM,35.6,30.2,81,29.94,10.0,NNE,4.6,-,N/A,,Clear,30,2012-12-07 11:55:00
6:15 AM,35.6,28.4,75,29.94,10.0,NNE,6.9,-,N/A,,Clear,20,2012-12-07 12:15:00
6:35 AM,35.6,28.4,75,29.94,10.0,Calm,Calm,-,N/A,,Clear,0,2012-12-07 12:35:00
6:55 AM,35.6,28.4,75,29.94,10.0,NNE,4.6,-,N/A,,Clear,30,2012-12-07 12:55:00
7:15 AM,35.6,26.6,70,29.94,10.0,NNE,5.8,-,N/A,,Clear,20,2012-12-07 13:15:00
7:35 AM,33.8,26.6,75,29.94,10.0,NNE,4.6,-,N/A,,Clear,20,2012-12-07 13:35:00
7:55 AM,33.8,26.6,75,29.94,10.0,North,3.5,-,N/A,,Scattered Clouds,360,2012-12-07 13:55:00
8:15 AM,33.8,28.4,81,29.95,10.0,NNW,5.8,-,N/A,,Scattered Clouds,340,2012-12-07 14:15:00
8:35 AM,35.6,28.4,75,29.94,10.0,North,5.8,-,N/A,,Scattered Clouds,10,2012-12-07 14:35:00
8:55 AM,35.6,28.4,75,29.95,10.0,North,3.5,-,N/A,,Clear,10,2012-12-07 14:55:00
9:15 AM,35.6,28.4,75,29.94,10.0,NNE,3.5,-,N/A,,Clear,30,2012-12-07 15:15:00
9:35 AM,39.2,28.4,65,29.94,10.0,NE,6.9,-,N/A,,Clear,50,2012-12-07 15:35:00
9:55 AM,39.2,28.4,65,29.93,10.0,East,8.1,-,N/A,,Clear,80,2012-12-07 15:55:00
10:15 AM,41.0,28.4,61,29.93,10.0,ENE,8.1,-,N/A,,Clear,60,2012-12-07 16:15:00
10:35 AM,42.8,28.4,57,29.93,10.0,East,3.5,-,N/A,,Clear,90,2012-12-07 16:35:00
10:55 AM,42.8,28.4,57,29.92,10.0,East,5.8,-,N/A,,Clear,80,2012-12-07 16:55:00
11:15 AM,44.6,26.6,49,29.91,10.0,East,9.2,-,N/A,,Clear,80,2012-12-07 17:15:00
11:35 AM,44.6,26.6,49,29.89,10.0,ESE,8.1,-,N/A,,Clear,110,2012-12-07 17:35:00
11:55 AM,46.4,24.8,43,29.88,10.0,ESE,9.2,-,N/A,,Clear,120,2012-12-07 17:55:00
12:15 PM,46.4,26.6,46,29.87,10.0,ESE,6.9,-,N/A,,Clear,110,2012-12-07 18:15:00
12:35 PM,46.4,28.4,50,29.88,10.0,SE,4.6,-,N/A,,Clear,140,2012-12-07 18:35:00
12:55 PM,44.6,28.4,53,29.89,10.0,Calm,Calm,-,N/A,,Clear,0,2012-12-07 18:55:00
1:15 PM,46.4,28.4,50,29.88,10.0,Calm,Calm,-,N/A,,Scattered Clouds,0,2012-12-07 19:15:00
1:35 PM,46.4,28.4,50,29.88,10.0,Calm,Calm,-,N/A,,Mostly Cloudy,0,2012-12-07 19:35:00
1:55 PM,46.4,28.4,50,29.88,10.0,NNW,3.5,-,N/A,,Overcast,330,2012-12-07 19:55:00
2:15 PM,46.4,30.2,53,29.88,10.0,West,3.5,-,N/A,,Mostly Cloudy,280,2012-12-07 20:15:00
2:35 PM,46.4,28.4,50,29.88,10.0,WNW,5.8,-,N/A,,Mostly Cloudy,290,2012-12-07 20:35:00
2:55 PM,46.4,28.4,50,29.89,10.0,NW,4.6,-,N/A,,Overcast,320,2012-12-07 20:55:00
3:15 PM,46.4,26.6,46,29.89,10.0,NW,5.8,-,N/A,,Overcast,320,2012-12-07 21:15:00
3:35 PM,46.4,26.6,46,29.88,10.0,NNW,5.8,-,N/A,,Mostly Cloudy,340,2012-12-07 21:35:00
3:55 PM,46.4,26.6,46,29.87,10.0,North,11.5,-,N/A,,Scattered Clouds,360,2012-12-07 21:55:00
4:15 PM,44.6,26.6,49,29.88,10.0,North,9.2,-,N/A,,Scattered Clouds,10,2012-12-07 22:15:00
4:35 PM,44.6,26.6,49,29.89,10.0,North,8.1,-,N/A,,Scattered Clouds,10,2012-12-07 22:35:00
4:55 PM,44.6,26.6,49,29.89,10.0,North,5.8,-,N/A,,Scattered Clouds,360,2012-12-07 22:55:00
5:15 PM,42.8,26.6,53,29.89,10.0,NNE,3.5,-,N/A,,Scattered Clouds,20,2012-12-07 23:15:00
5:35 PM,42.8,26.6,53,29.89,10.0,North,8.1,-,N/A,,Scattered Clouds,10,2012-12-07 23:35:00
5:55 PM,42.8,26.6,53,29.88,10.0,NE,5.8,-,N/A,,Scattered Clouds,40,2012-12-07 23:55:00
6:15 PM,41.0,28.4,61,29.87,10.0,ENE,3.5,-,N/A,,Clear,60,2012-12-08 00:15:00
6:35 PM,41.0,28.4,61,29.89,10.0,NNE,3.5,-,N/A,,Clear,30,2012-12-08 00:35:00
7:15 PM,39.2,28.4,65,29.90,10.0,ENE,3.5,-,N/A,,Scattered Clouds,60,2012-12-08 01:15:00
7:35 PM,39.2,28.4,65,29.91,10.0,NE,4.6,-,N/A,,Scattered Clouds,50,2012-12-08 01:35:00
7:55 PM,39.2,28.4,65,29.91,10.0,NNE,5.8,-,N/A,,Clear,30,2012-12-08 01:55:00
8:35 PM,35.6,28.4,75,29.93,10.0,NNE,4.6,-,N/A,,Clear,30,2012-12-08 02:35:00
8:55 PM,35.6,28.4,75,29.94,10.0,NNE,3.5,-,N/A,,Clear,20,2012-12-08 02:55:00
9:35 PM,33.8,28.4,81,29.95,10.0,North,3.5,-,N/A,,Clear,350,2012-12-08 03:35:00
9:55 PM,33.8,26.6,75,29.95,10.0,North,3.5,-,N/A,,Clear,360,2012-12-08 03:55:00
10:15 PM,33.8,26.6,75,29.95,10.0,North,3.5,-,N/A,,Clear,360,2012-12-08 04:15:00
10:35 PM,32.0,26.6,80,29.95,10.0,Calm,Calm,-,N/A,,Clear,0,2012-12-08 04:35:00
10:55 PM,30.2,26.6,86,29.97,10.0,Calm,Calm,-,N/A,,Clear,0,2012-12-08 04:55:00
11:35 PM,30.2,26.6,86,29.97,7.0,Calm,Calm,-,N/A,,Clear,0,2012-12-08 05:35:00
11:55 PM,30.2,26.6,86,29.96,7.0,Calm,Calm,-,N/A,,Clear,0,2012-12-08 05:55:00